sensor_id;sensor_type;location;lat;lon;timestamp;P1;durP1;ratioP1;P2;durP2;ratioP2
35434;SDS011;21556;55.782;37.528;2023-07-08T00:01:04;12.65;;;11.23;;
35434;SDS011;21556;55.782;37.528;2023-07-08T00:03:34;11.90;;;10.70;;
35434;SDS011;21556;55.782;37.528;2023-07-08T00:06:00;12.68;;;11.18;;
35434;SDS011;21556;55.782;37.528;2023-07-08T00:08:29;13.18;;;10.85;;
35434;SDS011;21556;55.782;37.528;2023-07-08T00:10:55;11.98;;;10.90;;
35434;SDS011;21556;55.782;37.528;2023-07-08T00:13:21;11.68;;;10.50;;
35434;SDS011;21556;55.782;37.528;2023-07-08T00:15:47;11.68;;;10.45;;
35434;SDS011;21556;55.782;37.528;2023-07-08T00:18:15;14.43;;;10.45;;
35434;SDS011;21556;55.782;37.528;2023-07-08T00:20:42;12.57;;;11.05;;
35434;SDS011;21556;55.782;37.528;2023-07-08T00:23:10;13.02;;;10.32;;
35434;SDS011;21556;55.782;37.528;2023-07-08T00:25:36;13.75;;;10.77;;
35434;SDS011;21556;55.782;37.528;2023-07-08T00:28:12;14.07;;;11.02;;
35434;SDS011;21556;55.782;37.528;2023-07-08T00:30:41;12.07;;;10.52;;
35434;SDS011;21556;55.782;37.528;2023-07-08T00:33:11;12.25;;;10.35;;
35434;SDS011;21556;55.782;37.528;2023-07-08T00:35:38;13.65;;;10.77;;
35434;SDS011;21556;55.782;37.528;2023-07-08T00:38:24;12.73;;;10.68;;
35434;SDS011;21556;55.782;37.528;2023-07-08T00:43:50;12.00;;;10.60;;
35434;SDS011;21556;55.782;37.528;2023-07-08T00:46:28;11.40;;;10.20;;
35434;SDS011;21556;55.782;37.528;2023-07-08T00:51:34;12.63;;;11.30;;
35434;SDS011;21556;55.782;37.528;2023-07-08T00:54:11;12.70;;;11.13;;
35434;SDS011;21556;55.782;37.528;2023-07-08T00:56:40;12.57;;;11.27;;
35434;SDS011;21556;55.782;37.528;2023-07-08T00:59:09;12.82;;;11.52;;
35434;SDS011;21556;55.782;37.528;2023-07-08T01:01:39;11.32;;;10.25;;
35434;SDS011;21556;55.782;37.528;2023-07-08T01:04:11;12.75;;;11.52;;
35434;SDS011;21556;55.782;37.528;2023-07-08T01:06:45;11.90;;;10.70;;
35434;SDS011;21556;55.782;37.528;2023-07-08T01:09:30;11.70;;;10.48;;
35434;SDS011;21556;55.782;37.528;2023-07-08T01:12:02;13.38;;;11.55;;
35434;SDS011;21556;55.782;37.528;2023-07-08T01:14:33;13.35;;;11.23;;
35434;SDS011;21556;55.782;37.528;2023-07-08T01:17:01;12.52;;;11.23;;
35434;SDS011;21556;55.782;37.528;2023-07-08T01:19:27;12.85;;;11.55;;
35434;SDS011;21556;55.782;37.528;2023-07-08T01:22:04;12.68;;;10.48;;
35434;SDS011;21556;55.782;37.528;2023-07-08T01:24:31;11.10;;;10.00;;
35434;SDS011;21556;55.782;37.528;2023-07-08T01:27:01;12.60;;;10.65;;
35434;SDS011;21556;55.782;37.528;2023-07-08T01:29:29;13.50;;;11.30;;
35434;SDS011;21556;55.782;37.528;2023-07-08T01:31:56;13.82;;;10.65;;
35434;SDS011;21556;55.782;37.528;2023-07-08T01:34:22;15.15;;;11.18;;
35434;SDS011;21556;55.782;37.528;2023-07-08T01:36:53;12.18;;;10.88;;
35434;SDS011;21556;55.782;37.528;2023-07-08T01:39:22;13.75;;;11.30;;
35434;SDS011;21556;55.782;37.528;2023-07-08T01:41:49;12.90;;;10.85;;
35434;SDS011;21556;55.782;37.528;2023-07-08T01:44:29;14.00;;;11.82;;
35434;SDS011;21556;55.782;37.528;2023-07-08T01:47:11;13.05;;;11.40;;
35434;SDS011;21556;55.782;37.528;2023-07-08T01:49:42;13.25;;;11.82;;
35434;SDS011;21556;55.782;37.528;2023-07-08T01:52:10;13.27;;;11.73;;
35434;SDS011;21556;55.782;37.528;2023-07-08T01:54:38;13.53;;;12.07;;
35434;SDS011;21556;55.782;37.528;2023-07-08T01:57:04;12.88;;;11.45;;
35434;SDS011;21556;55.782;37.528;2023-07-08T01:59:30;12.95;;;11.55;;
35434;SDS011;21556;55.782;37.528;2023-07-08T02:01:56;14.65;;;12.10;;
35434;SDS011;21556;55.782;37.528;2023-07-08T02:04:23;15.18;;;13.25;;
35434;SDS011;21556;55.782;37.528;2023-07-08T02:06:53;14.00;;;12.50;;
35434;SDS011;21556;55.782;37.528;2023-07-08T02:09:20;14.82;;;13.05;;
35434;SDS011;21556;55.782;37.528;2023-07-08T02:11:46;14.80;;;13.20;;
35434;SDS011;21556;55.782;37.528;2023-07-08T02:14:12;18.05;;;11.73;;
35434;SDS011;21556;55.782;37.528;2023-07-08T02:16:38;15.88;;;13.38;;
35434;SDS011;21556;55.782;37.528;2023-07-08T02:19:04;13.93;;;12.52;;
35434;SDS011;21556;55.782;37.528;2023-07-08T02:21:30;14.23;;;12.73;;
35434;SDS011;21556;55.782;37.528;2023-07-08T02:23:56;16.00;;;14.30;;
35434;SDS011;21556;55.782;37.528;2023-07-08T02:26:23;13.95;;;12.55;;
35434;SDS011;21556;55.782;37.528;2023-07-08T02:28:49;15.02;;;12.98;;
35434;SDS011;21556;55.782;37.528;2023-07-08T02:31:15;14.23;;;12.73;;
35434;SDS011;21556;55.782;37.528;2023-07-08T02:33:41;18.40;;;13.68;;
35434;SDS011;21556;55.782;37.528;2023-07-08T02:36:07;15.10;;;13.13;;
35434;SDS011;21556;55.782;37.528;2023-07-08T02:38:33;15.48;;;13.88;;
35434;SDS011;21556;55.782;37.528;2023-07-08T02:40:59;15.02;;;13.55;;
35434;SDS011;21556;55.782;37.528;2023-07-08T02:43:26;15.23;;;13.55;;
35434;SDS011;21556;55.782;37.528;2023-07-08T02:45:52;16.50;;;13.57;;
35434;SDS011;21556;55.782;37.528;2023-07-08T02:48:18;14.52;;;13.02;;
35434;SDS011;21556;55.782;37.528;2023-07-08T02:50:45;19.23;;;13.85;;
35434;SDS011;21556;55.782;37.528;2023-07-08T02:53:11;15.38;;;13.40;;
35434;SDS011;21556;55.782;37.528;2023-07-08T02:55:38;13.98;;;12.57;;
35434;SDS011;21556;55.782;37.528;2023-07-08T02:58:05;13.88;;;12.57;;
35434;SDS011;21556;55.782;37.528;2023-07-08T03:00:31;15.15;;;12.88;;
35434;SDS011;21556;55.782;37.528;2023-07-08T03:02:57;15.27;;;13.02;;
35434;SDS011;21556;55.782;37.528;2023-07-08T03:05:22;13.63;;;12.20;;
35434;SDS011;21556;55.782;37.528;2023-07-08T03:07:48;13.27;;;11.88;;
35434;SDS011;21556;55.782;37.528;2023-07-08T03:10:14;13.70;;;12.10;;
35434;SDS011;21556;55.782;37.528;2023-07-08T03:12:42;13.70;;;12.17;;
35434;SDS011;21556;55.782;37.528;2023-07-08T03:15:08;13.27;;;11.73;;
35434;SDS011;21556;55.782;37.528;2023-07-08T03:17:34;15.10;;;12.55;;
35434;SDS011;21556;55.782;37.528;2023-07-08T03:20:00;13.02;;;11.57;;
35434;SDS011;21556;55.782;37.528;2023-07-08T03:22:26;13.75;;;11.63;;
35434;SDS011;21556;55.782;37.528;2023-07-08T03:24:52;13.75;;;12.40;;
35434;SDS011;21556;55.782;37.528;2023-07-08T03:27:20;20.70;;;12.60;;
35434;SDS011;21556;55.782;37.528;2023-07-08T03:29:48;13.52;;;12.13;;
35434;SDS011;21556;55.782;37.528;2023-07-08T03:32:15;12.95;;;11.43;;
35434;SDS011;21556;55.782;37.528;2023-07-08T03:34:41;13.55;;;12.25;;
35434;SDS011;21556;55.782;37.528;2023-07-08T03:37:08;12.82;;;11.48;;
35434;SDS011;21556;55.782;37.528;2023-07-08T03:39:36;13.70;;;11.95;;
35434;SDS011;21556;55.782;37.528;2023-07-08T03:42:02;13.38;;;10.57;;
35434;SDS011;21556;55.782;37.528;2023-07-08T03:44:29;11.60;;;10.40;;
35434;SDS011;21556;55.782;37.528;2023-07-08T03:46:55;12.68;;;11.48;;
35434;SDS011;21556;55.782;37.528;2023-07-08T03:49:22;13.93;;;12.18;;
35434;SDS011;21556;55.782;37.528;2023-07-08T03:51:53;12.05;;;10.85;;
35434;SDS011;21556;55.782;37.528;2023-07-08T03:54:20;11.75;;;10.35;;
35434;SDS011;21556;55.782;37.528;2023-07-08T03:56:48;10.80;;;9.80;;
35434;SDS011;21556;55.782;37.528;2023-07-08T03:59:15;13.65;;;11.40;;
35434;SDS011;21556;55.782;37.528;2023-07-08T04:01:41;12.50;;;11.20;;
35434;SDS011;21556;55.782;37.528;2023-07-08T04:04:11;12.70;;;11.40;;
35434;SDS011;21556;55.782;37.528;2023-07-08T04:06:38;12.27;;;11.07;;
35434;SDS011;21556;55.782;37.528;2023-07-08T04:09:06;12.82;;;11.30;;
35434;SDS011;21556;55.782;37.528;2023-07-08T04:11:32;10.65;;;9.60;;
35434;SDS011;21556;55.782;37.528;2023-07-08T04:13:58;11.70;;;10.32;;
35434;SDS011;21556;55.782;37.528;2023-07-08T04:16:43;11.20;;;10.13;;
35434;SDS011;21556;55.782;37.528;2023-07-08T04:19:13;12.27;;;10.00;;
35434;SDS011;21556;55.782;37.528;2023-07-08T04:21:40;13.90;;;10.77;;
35434;SDS011;21556;55.782;37.528;2023-07-08T04:24:07;13.15;;;11.23;;
35434;SDS011;21556;55.782;37.528;2023-07-08T04:26:35;12.27;;;11.02;;
35434;SDS011;21556;55.782;37.528;2023-07-08T04:29:02;11.20;;;10.00;;
35434;SDS011;21556;55.782;37.528;2023-07-08T04:31:28;11.48;;;10.02;;
35434;SDS011;21556;55.782;37.528;2023-07-08T04:33:53;10.70;;;9.70;;
35434;SDS011;21556;55.782;37.528;2023-07-08T04:36:19;12.35;;;10.07;;
35434;SDS011;21556;55.782;37.528;2023-07-08T04:38:47;10.93;;;9.40;;
35434;SDS011;21556;55.782;37.528;2023-07-08T04:41:13;11.98;;;10.20;;
35434;SDS011;21556;55.782;37.528;2023-07-08T04:43:39;11.65;;;9.93;;
35434;SDS011;21556;55.782;37.528;2023-07-08T04:46:05;11.07;;;9.98;;
35434;SDS011;21556;55.782;37.528;2023-07-08T04:48:42;10.73;;;9.63;;
35434;SDS011;21556;55.782;37.528;2023-07-08T04:51:08;13.35;;;10.13;;
35434;SDS011;21556;55.782;37.528;2023-07-08T04:53:34;11.32;;;10.15;;
35434;SDS011;21556;55.782;37.528;2023-07-08T04:56:00;10.35;;;9.27;;
35434;SDS011;21556;55.782;37.528;2023-07-08T04:58:26;11.18;;;9.43;;
35434;SDS011;21556;55.782;37.528;2023-07-08T05:00:51;10.48;;;9.48;;
35434;SDS011;21556;55.782;37.528;2023-07-08T05:03:18;12.30;;;9.50;;
35434;SDS011;21556;55.782;37.528;2023-07-08T05:05:44;10.43;;;9.38;;
35434;SDS011;21556;55.782;37.528;2023-07-08T05:08:11;10.45;;;9.35;;
35434;SDS011;21556;55.782;37.528;2023-07-08T05:10:38;11.73;;;9.20;;
35434;SDS011;21556;55.782;37.528;2023-07-08T05:13:04;10.30;;;9.20;;
35434;SDS011;21556;55.782;37.528;2023-07-08T05:15:30;10.90;;;9.80;;
35434;SDS011;21556;55.782;37.528;2023-07-08T05:17:59;12.20;;;9.00;;
35434;SDS011;21556;55.782;37.528;2023-07-08T05:20:25;11.38;;;9.60;;
35434;SDS011;21556;55.782;37.528;2023-07-08T05:22:51;10.48;;;9.23;;
35434;SDS011;21556;55.782;37.528;2023-07-08T05:25:17;11.68;;;8.90;;
35434;SDS011;21556;55.782;37.528;2023-07-08T05:27:45;10.75;;;9.65;;
35434;SDS011;21556;55.782;37.528;2023-07-08T05:30:14;10.23;;;9.10;;
35434;SDS011;21556;55.782;37.528;2023-07-08T05:32:42;12.70;;;9.57;;
35434;SDS011;21556;55.782;37.528;2023-07-08T05:35:08;10.48;;;9.40;;
35434;SDS011;21556;55.782;37.528;2023-07-08T05:37:34;9.90;;;8.90;;
35434;SDS011;21556;55.782;37.528;2023-07-08T05:40:00;10.38;;;9.38;;
35434;SDS011;21556;55.782;37.528;2023-07-08T05:42:30;11.23;;;9.45;;
35434;SDS011;21556;55.782;37.528;2023-07-08T05:44:56;10.38;;;8.95;;
35434;SDS011;21556;55.782;37.528;2023-07-08T05:47:22;10.90;;;9.40;;
35434;SDS011;21556;55.782;37.528;2023-07-08T05:49:48;12.15;;;9.10;;
35434;SDS011;21556;55.782;37.528;2023-07-08T05:52:14;10.98;;;9.63;;
35434;SDS011;21556;55.782;37.528;2023-07-08T05:54:40;10.05;;;8.70;;
35434;SDS011;21556;55.782;37.528;2023-07-08T05:57:08;11.23;;;9.80;;
35434;SDS011;21556;55.782;37.528;2023-07-08T05:59:36;13.80;;;9.30;;
35434;SDS011;21556;55.782;37.528;2023-07-08T06:04:30;13.65;;;9.77;;
35434;SDS011;21556;55.782;37.528;2023-07-08T06:06:56;10.60;;;9.57;;
35434;SDS011;21556;55.782;37.528;2023-07-08T06:09:22;11.60;;;10.15;;
35434;SDS011;21556;55.782;37.528;2023-07-08T06:11:48;14.23;;;9.65;;
35434;SDS011;21556;55.782;37.528;2023-07-08T06:14:14;13.07;;;10.15;;
35434;SDS011;21556;55.782;37.528;2023-07-08T06:16:40;12.77;;;9.35;;
35434;SDS011;21556;55.782;37.528;2023-07-08T06:19:06;11.40;;;9.73;;
35434;SDS011;21556;55.782;37.528;2023-07-08T06:21:32;11.05;;;9.80;;
35434;SDS011;21556;55.782;37.528;2023-07-08T06:23:58;10.90;;;8.85;;
35434;SDS011;21556;55.782;37.528;2023-07-08T06:26:24;11.02;;;8.63;;
35434;SDS011;21556;55.782;37.528;2023-07-08T06:28:50;12.18;;;9.30;;
35434;SDS011;21556;55.782;37.528;2023-07-08T06:31:18;10.98;;;9.45;;
35434;SDS011;21556;55.782;37.528;2023-07-08T06:33:47;12.32;;;8.18;;
35434;SDS011;21556;55.782;37.528;2023-07-08T06:36:13;10.15;;;8.27;;
35434;SDS011;21556;55.782;37.528;2023-07-08T06:38:38;10.68;;;8.63;;
35434;SDS011;21556;55.782;37.528;2023-07-08T06:41:04;10.38;;;9.10;;
35434;SDS011;21556;55.782;37.528;2023-07-08T06:43:30;9.35;;;8.45;;
35434;SDS011;21556;55.782;37.528;2023-07-08T06:46:05;9.88;;;8.98;;
35434;SDS011;21556;55.782;37.528;2023-07-08T06:48:32;10.43;;;9.40;;
35434;SDS011;21556;55.782;37.528;2023-07-08T06:50:58;9.80;;;8.88;;
35434;SDS011;21556;55.782;37.528;2023-07-08T06:53:24;9.27;;;8.38;;
35434;SDS011;21556;55.782;37.528;2023-07-08T06:55:50;9.88;;;8.82;;
35434;SDS011;21556;55.782;37.528;2023-07-08T06:58:16;11.60;;;8.88;;
35434;SDS011;21556;55.782;37.528;2023-07-08T07:00:43;9.15;;;8.25;;
35434;SDS011;21556;55.782;37.528;2023-07-08T07:03:10;10.17;;;8.60;;
35434;SDS011;21556;55.782;37.528;2023-07-08T07:05:37;10.07;;;9.18;;
35434;SDS011;21556;55.782;37.528;2023-07-08T07:08:04;12.80;;;8.82;;
35434;SDS011;21556;55.782;37.528;2023-07-08T07:10:30;9.70;;;8.07;;
35434;SDS011;21556;55.782;37.528;2023-07-08T07:12:56;11.32;;;9.48;;
35434;SDS011;21556;55.782;37.528;2023-07-08T07:15:23;12.23;;;10.85;;
35434;SDS011;21556;55.782;37.528;2023-07-08T07:17:50;10.75;;;9.40;;
35434;SDS011;21556;55.782;37.528;2023-07-08T07:20:16;11.00;;;8.95;;
35434;SDS011;21556;55.782;37.528;2023-07-08T07:22:42;10.02;;;9.02;;
35434;SDS011;21556;55.782;37.528;2023-07-08T07:25:08;11.85;;;9.50;;
35434;SDS011;21556;55.782;37.528;2023-07-08T07:27:34;9.30;;;8.43;;
35434;SDS011;21556;55.782;37.528;2023-07-08T07:30:00;10.40;;;9.32;;
35434;SDS011;21556;55.782;37.528;2023-07-08T07:32:29;10.27;;;9.07;;
35434;SDS011;21556;55.782;37.528;2023-07-08T07:37:24;12.43;;;9.73;;
35434;SDS011;21556;55.782;37.528;2023-07-08T07:39:50;10.40;;;9.13;;
35434;SDS011;21556;55.782;37.528;2023-07-08T07:42:17;9.95;;;9.02;;
35434;SDS011;21556;55.782;37.528;2023-07-08T07:44:45;9.13;;;8.23;;
35434;SDS011;21556;55.782;37.528;2023-07-08T07:47:11;9.07;;;8.18;;
35434;SDS011;21556;55.782;37.528;2023-07-08T07:49:38;11.27;;;9.95;;
35434;SDS011;21556;55.782;37.528;2023-07-08T07:52:05;11.00;;;9.55;;
35434;SDS011;21556;55.782;37.528;2023-07-08T07:54:31;9.52;;;8.63;;
35434;SDS011;21556;55.782;37.528;2023-07-08T07:56:57;10.25;;;9.27;;
35434;SDS011;21556;55.782;37.528;2023-07-08T07:59:26;9.32;;;8.52;;
35434;SDS011;21556;55.782;37.528;2023-07-08T08:01:52;11.55;;;9.52;;
35434;SDS011;21556;55.782;37.528;2023-07-08T08:04:18;11.93;;;9.93;;
35434;SDS011;21556;55.782;37.528;2023-07-08T08:06:44;10.50;;;8.90;;
35434;SDS011;21556;55.782;37.528;2023-07-08T08:09:10;11.00;;;9.73;;
35434;SDS011;21556;55.782;37.528;2023-07-08T08:11:36;14.70;;;10.48;;
35434;SDS011;21556;55.782;37.528;2023-07-08T08:14:01;12.20;;;10.88;;
35434;SDS011;21556;55.782;37.528;2023-07-08T08:16:29;12.90;;;10.07;;
35434;SDS011;21556;55.782;37.528;2023-07-08T08:18:55;14.52;;;9.98;;
35434;SDS011;21556;55.782;37.528;2023-07-08T08:21:21;11.73;;;9.82;;
35434;SDS011;21556;55.782;37.528;2023-07-08T08:23:47;13.20;;;8.85;;
35434;SDS011;21556;55.782;37.528;2023-07-08T08:26:13;11.27;;;9.30;;
35434;SDS011;21556;55.782;37.528;2023-07-08T08:28:39;12.63;;;10.00;;
35434;SDS011;21556;55.782;37.528;2023-07-08T08:31:05;10.35;;;9.23;;
35434;SDS011;21556;55.782;37.528;2023-07-08T08:33:31;14.45;;;9.32;;
35434;SDS011;21556;55.782;37.528;2023-07-08T08:35:57;10.55;;;8.63;;
35434;SDS011;21556;55.782;37.528;2023-07-08T08:38:23;13.55;;;10.20;;
35434;SDS011;21556;55.782;37.528;2023-07-08T08:40:49;17.58;;;10.38;;
35434;SDS011;21556;55.782;37.528;2023-07-08T08:43:22;9.65;;;8.65;;
35434;SDS011;21556;55.782;37.528;2023-07-08T08:45:57;8.25;;;7.43;;
35434;SDS011;21556;55.782;37.528;2023-07-08T08:48:57;9.40;;;7.50;;
35434;SDS011;21556;55.782;37.528;2023-07-08T08:51:28;9.57;;;8.50;;
35434;SDS011;21556;55.782;37.528;2023-07-08T08:53:57;11.50;;;7.80;;
35434;SDS011;21556;55.782;37.528;2023-07-08T09:02:07;9.35;;;8.15;;
35434;SDS011;21556;55.782;37.528;2023-07-08T09:04:54;9.43;;;7.45;;
35434;SDS011;21556;55.782;37.528;2023-07-08T09:07:23;10.15;;;9.15;;
35434;SDS011;21556;55.782;37.528;2023-07-08T09:12:34;9.13;;;7.13;;
35434;SDS011;21556;55.782;37.528;2023-07-08T09:15:03;8.40;;;7.57;;
35434;SDS011;21556;55.782;37.528;2023-07-08T09:17:37;8.50;;;7.65;;
35434;SDS011;21556;55.782;37.528;2023-07-08T09:25:42;8.50;;;7.45;;
35434;SDS011;21556;55.782;37.528;2023-07-08T09:28:15;8.77;;;7.78;;
35434;SDS011;21556;55.782;37.528;2023-07-08T09:30:41;7.43;;;6.72;;
35434;SDS011;21556;55.782;37.528;2023-07-08T09:33:08;10.13;;;7.47;;
35434;SDS011;21556;55.782;37.528;2023-07-08T09:35:38;7.75;;;6.93;;
35434;SDS011;21556;55.782;37.528;2023-07-08T09:38:08;7.57;;;6.88;;
35434;SDS011;21556;55.782;37.528;2023-07-08T09:40:38;8.35;;;7.05;;
35434;SDS011;21556;55.782;37.528;2023-07-08T09:43:23;10.40;;;7.35;;
35434;SDS011;21556;55.782;37.528;2023-07-08T09:45:50;8.52;;;6.63;;
35434;SDS011;21556;55.782;37.528;2023-07-08T09:48:26;7.22;;;6.32;;
35434;SDS011;21556;55.782;37.528;2023-07-08T09:50:54;6.40;;;5.75;;
35434;SDS011;21556;55.782;37.528;2023-07-08T09:53:22;8.82;;;5.80;;
35434;SDS011;21556;55.782;37.528;2023-07-08T09:55:49;8.18;;;5.13;;
35434;SDS011;21556;55.782;37.528;2023-07-08T09:58:24;5.90;;;5.30;;
35434;SDS011;21556;55.782;37.528;2023-07-08T10:00:51;9.38;;;4.80;;
35434;SDS011;21556;55.782;37.528;2023-07-08T10:03:31;5.70;;;4.68;;
35434;SDS011;21556;55.782;37.528;2023-07-08T10:06:02;5.15;;;4.18;;
35434;SDS011;21556;55.782;37.528;2023-07-08T10:08:36;5.03;;;4.40;;
35434;SDS011;21556;55.782;37.528;2023-07-08T10:13:44;5.32;;;3.55;;
35434;SDS011;21556;55.782;37.528;2023-07-08T10:18:41;4.57;;;4.13;;
35434;SDS011;21556;55.782;37.528;2023-07-08T10:21:08;4.10;;;3.70;;
35434;SDS011;21556;55.782;37.528;2023-07-08T10:23:43;8.18;;;7.00;;
35434;SDS011;21556;55.782;37.528;2023-07-08T10:32:08;5.00;;;3.45;;
35434;SDS011;21556;55.782;37.528;2023-07-08T10:48:59;5.72;;;3.53;;
35434;SDS011;21556;55.782;37.528;2023-07-08T10:57:38;4.68;;;3.63;;
35434;SDS011;21556;55.782;37.528;2023-07-08T11:02:56;3.67;;;3.22;;
35434;SDS011;21556;55.782;37.528;2023-07-08T11:08:12;3.67;;;3.25;;
35434;SDS011;21556;55.782;37.528;2023-07-08T11:10:49;5.28;;;3.50;;
35434;SDS011;21556;55.782;37.528;2023-07-08T11:13:21;3.90;;;3.13;;
35434;SDS011;21556;55.782;37.528;2023-07-08T11:15:57;6.05;;;3.40;;
35434;SDS011;21556;55.782;37.528;2023-07-08T11:18:47;4.07;;;3.67;;
35434;SDS011;21556;55.782;37.528;2023-07-08T11:24:04;5.00;;;3.47;;
35434;SDS011;21556;55.782;37.528;2023-07-08T11:29:24;4.25;;;3.00;;
35434;SDS011;21556;55.782;37.528;2023-07-08T11:32:00;5.88;;;3.42;;
35434;SDS011;21556;55.782;37.528;2023-07-08T11:34:29;4.43;;;3.05;;
35434;SDS011;21556;55.782;37.528;2023-07-08T11:36:56;3.35;;;3.00;;
35434;SDS011;21556;55.782;37.528;2023-07-08T11:39:34;2.53;;;2.33;;
35434;SDS011;21556;55.782;37.528;2023-07-08T11:42:15;4.17;;;2.70;;
35434;SDS011;21556;55.782;37.528;2023-07-08T11:44:46;3.05;;;2.63;;
35434;SDS011;21556;55.782;37.528;2023-07-08T11:47:32;3.63;;;2.90;;
35434;SDS011;21556;55.782;37.528;2023-07-08T11:50:03;5.70;;;2.55;;
35434;SDS011;21556;55.782;37.528;2023-07-08T11:52:31;5.20;;;3.25;;
35434;SDS011;21556;55.782;37.528;2023-07-08T11:55:08;5.55;;;3.13;;
35434;SDS011;21556;55.782;37.528;2023-07-08T11:57:42;3.53;;;2.70;;
35434;SDS011;21556;55.782;37.528;2023-07-08T12:00:13;3.45;;;2.47;;
35434;SDS011;21556;55.782;37.528;2023-07-08T12:02:52;6.05;;;2.83;;
35434;SDS011;21556;55.782;37.528;2023-07-08T12:05:30;4.70;;;2.83;;
35434;SDS011;21556;55.782;37.528;2023-07-08T12:07:58;3.20;;;2.70;;
35434;SDS011;21556;55.782;37.528;2023-07-08T12:10:40;4.22;;;2.95;;
35434;SDS011;21556;55.782;37.528;2023-07-08T12:13:23;4.40;;;3.30;;
35434;SDS011;21556;55.782;37.528;2023-07-08T12:15:50;8.23;;;3.05;;
35434;SDS011;21556;55.782;37.528;2023-07-08T12:18:19;8.02;;;3.15;;
35434;SDS011;21556;55.782;37.528;2023-07-08T12:20:46;4.50;;;2.75;;
35434;SDS011;21556;55.782;37.528;2023-07-08T12:23:20;4.28;;;2.88;;
35434;SDS011;21556;55.782;37.528;2023-07-08T12:25:47;3.55;;;2.97;;
35434;SDS011;21556;55.782;37.528;2023-07-08T12:28:14;3.58;;;2.78;;
35434;SDS011;21556;55.782;37.528;2023-07-08T12:30:42;4.43;;;2.97;;
35434;SDS011;21556;55.782;37.528;2023-07-08T12:33:13;4.30;;;3.53;;
35434;SDS011;21556;55.782;37.528;2023-07-08T12:35:42;4.45;;;3.25;;
35434;SDS011;21556;55.782;37.528;2023-07-08T12:41:16;4.57;;;3.38;;
35434;SDS011;21556;55.782;37.528;2023-07-08T12:43:48;5.90;;;3.78;;
35434;SDS011;21556;55.782;37.528;2023-07-08T12:46:16;5.50;;;4.23;;
35434;SDS011;21556;55.782;37.528;2023-07-08T12:48:43;5.78;;;3.95;;
35434;SDS011;21556;55.782;37.528;2023-07-08T12:51:13;3.83;;;3.35;;
35434;SDS011;21556;55.782;37.528;2023-07-08T12:53:42;10.75;;;3.40;;
35434;SDS011;21556;55.782;37.528;2023-07-08T12:56:08;5.85;;;4.82;;
35434;SDS011;21556;55.782;37.528;2023-07-08T12:58:43;6.82;;;4.03;;
35434;SDS011;21556;55.782;37.528;2023-07-08T13:01:16;7.05;;;5.47;;
35434;SDS011;21556;55.782;37.528;2023-07-08T13:03:46;4.00;;;3.08;;
35434;SDS011;21556;55.782;37.528;2023-07-08T13:06:16;4.70;;;3.05;;
35434;SDS011;21556;55.782;37.528;2023-07-08T13:08:47;5.20;;;3.17;;
35434;SDS011;21556;55.782;37.528;2023-07-08T13:11:13;4.25;;;3.50;;
35434;SDS011;21556;55.782;37.528;2023-07-08T13:13:45;3.92;;;3.15;;
35434;SDS011;21556;55.782;37.528;2023-07-08T13:16:13;4.55;;;3.00;;
35434;SDS011;21556;55.782;37.528;2023-07-08T13:18:40;7.47;;;3.35;;
35434;SDS011;21556;55.782;37.528;2023-07-08T13:21:08;4.45;;;3.22;;
35434;SDS011;21556;55.782;37.528;2023-07-08T13:23:38;4.13;;;3.72;;
35434;SDS011;21556;55.782;37.528;2023-07-08T13:26:14;5.82;;;3.40;;
35434;SDS011;21556;55.782;37.528;2023-07-08T13:28:42;6.78;;;4.80;;
35434;SDS011;21556;55.782;37.528;2023-07-08T13:31:21;5.05;;;2.42;;
35434;SDS011;21556;55.782;37.528;2023-07-08T13:33:52;3.67;;;3.05;;
35434;SDS011;21556;55.782;37.528;2023-07-08T13:36:24;4.25;;;3.03;;
35434;SDS011;21556;55.782;37.528;2023-07-08T13:39:07;5.07;;;2.88;;
35434;SDS011;21556;55.782;37.528;2023-07-08T13:41:35;7.88;;;4.93;;
35434;SDS011;21556;55.782;37.528;2023-07-08T13:44:08;3.75;;;2.92;;
35434;SDS011;21556;55.782;37.528;2023-07-08T13:49:19;3.15;;;2.38;;
35434;SDS011;21556;55.782;37.528;2023-07-08T13:51:45;3.92;;;2.92;;
35434;SDS011;21556;55.782;37.528;2023-07-08T13:56:44;4.72;;;3.53;;
35434;SDS011;21556;55.782;37.528;2023-07-08T13:59:12;5.80;;;2.95;;
35434;SDS011;21556;55.782;37.528;2023-07-08T14:01:43;4.57;;;2.30;;
35434;SDS011;21556;55.782;37.528;2023-07-08T14:04:16;9.02;;;6.43;;
35434;SDS011;21556;55.782;37.528;2023-07-08T14:06:44;4.20;;;3.80;;
35434;SDS011;21556;55.782;37.528;2023-07-08T14:09:14;4.70;;;3.55;;
35434;SDS011;21556;55.782;37.528;2023-07-08T14:11:42;4.30;;;2.97;;
35434;SDS011;21556;55.782;37.528;2023-07-08T14:14:09;5.30;;;3.05;;
35434;SDS011;21556;55.782;37.528;2023-07-08T14:16:36;5.78;;;4.00;;
35434;SDS011;21556;55.782;37.528;2023-07-08T14:19:05;4.95;;;3.63;;
35434;SDS011;21556;55.782;37.528;2023-07-08T14:21:36;7.60;;;3.25;;
35434;SDS011;21556;55.782;37.528;2023-07-08T14:24:08;4.32;;;2.92;;
35434;SDS011;21556;55.782;37.528;2023-07-08T14:26:35;4.28;;;2.80;;
35434;SDS011;21556;55.782;37.528;2023-07-08T14:29:01;4.03;;;3.28;;
35434;SDS011;21556;55.782;37.528;2023-07-08T14:31:27;4.53;;;3.15;;
35434;SDS011;21556;55.782;37.528;2023-07-08T14:33:59;5.43;;;2.90;;
35434;SDS011;21556;55.782;37.528;2023-07-08T14:36:38;10.48;;;8.30;;
35434;SDS011;21556;55.782;37.528;2023-07-08T14:39:14;4.95;;;3.17;;
35434;SDS011;21556;55.782;37.528;2023-07-08T14:41:41;7.25;;;2.97;;
35434;SDS011;21556;55.782;37.528;2023-07-08T14:44:19;7.63;;;3.20;;
35434;SDS011;21556;55.782;37.528;2023-07-08T14:46:48;3.85;;;2.70;;
35434;SDS011;21556;55.782;37.528;2023-07-08T14:49:16;5.20;;;2.42;;
35434;SDS011;21556;55.782;37.528;2023-07-08T14:51:46;6.55;;;2.38;;
35434;SDS011;21556;55.782;37.528;2023-07-08T14:54:12;6.32;;;3.78;;
35434;SDS011;21556;55.782;37.528;2023-07-08T14:56:39;6.57;;;5.65;;
35434;SDS011;21556;55.782;37.528;2023-07-08T14:59:06;3.95;;;3.53;;
35434;SDS011;21556;55.782;37.528;2023-07-08T15:01:40;3.65;;;2.60;;
35434;SDS011;21556;55.782;37.528;2023-07-08T15:04:13;6.07;;;2.65;;
35434;SDS011;21556;55.782;37.528;2023-07-08T15:06:43;2.47;;;2.22;;
35434;SDS011;21556;55.782;37.528;2023-07-08T15:09:11;4.28;;;2.40;;
35434;SDS011;21556;55.782;37.528;2023-07-08T15:11:40;6.50;;;3.45;;
35434;SDS011;21556;55.782;37.528;2023-07-08T15:14:22;5.63;;;2.80;;
35434;SDS011;21556;55.782;37.528;2023-07-08T15:16:50;3.28;;;2.63;;
35434;SDS011;21556;55.782;37.528;2023-07-08T15:19:18;4.18;;;2.70;;
35434;SDS011;21556;55.782;37.528;2023-07-08T15:21:44;6.00;;;2.97;;
35434;SDS011;21556;55.782;37.528;2023-07-08T15:24:12;6.47;;;2.95;;
35434;SDS011;21556;55.782;37.528;2023-07-08T15:26:39;5.28;;;2.90;;
35434;SDS011;21556;55.782;37.528;2023-07-08T15:29:26;4.53;;;2.58;;
35434;SDS011;21556;55.782;37.528;2023-07-08T15:31:52;4.13;;;2.53;;
35434;SDS011;21556;55.782;37.528;2023-07-08T15:34:19;4.57;;;3.13;;
35434;SDS011;21556;55.782;37.528;2023-07-08T15:36:47;3.17;;;2.30;;
35434;SDS011;21556;55.782;37.528;2023-07-08T15:39:14;4.43;;;2.67;;
35434;SDS011;21556;55.782;37.528;2023-07-08T15:41:40;4.25;;;3.00;;
35434;SDS011;21556;55.782;37.528;2023-07-08T15:44:10;4.72;;;2.40;;
35434;SDS011;21556;55.782;37.528;2023-07-08T15:46:41;3.28;;;2.22;;
35434;SDS011;21556;55.782;37.528;2023-07-08T15:49:17;2.97;;;2.53;;